createdAt,value
2018-03-21T00:01:23.196Z,17.95
2018-03-21T00:03:49.823Z,17.60
2018-03-21T00:06:16.470Z,16.40
2018-03-21T00:08:43.092Z,21.50
2018-03-21T00:11:09.792Z,18.55
2018-03-21T00:13:36.536Z,16.90
2018-03-21T00:16:03.164Z,17.45
2018-03-21T00:18:29.920Z,18.52
2018-03-21T00:20:56.612Z,16.77
2018-03-21T00:23:23.244Z,17.15
2018-03-21T00:25:49.883Z,17.10
2018-03-21T00:28:16.508Z,20.25
2018-03-21T00:30:43.212Z,17.62
2018-03-21T00:33:09.880Z,18.90
2018-03-21T00:35:36.514Z,17.15
2018-03-21T00:38:03.209Z,18.55
2018-03-21T00:40:29.872Z,17.55
2018-03-21T00:42:56.516Z,18.87
2018-03-21T00:45:23.148Z,17.17
2018-03-21T00:47:49.788Z,18.50
2018-03-21T00:50:16.524Z,18.02
2018-03-21T00:52:43.154Z,18.92
2018-03-21T00:55:09.794Z,17.58
2018-03-21T00:57:36.455Z,17.42
2018-03-21T01:00:03.088Z,17.42
2018-03-21T01:02:29.730Z,17.87
2018-03-21T01:04:56.360Z,19.17
2018-03-21T01:07:23.002Z,18.90
2018-03-21T01:09:49.645Z,18.90
2018-03-21T01:12:16.389Z,18.60
2018-03-21T01:14:43.120Z,20.08
2018-03-21T01:17:09.747Z,18.25
2018-03-21T01:19:36.406Z,19.83
2018-03-21T01:22:03.032Z,20.08
2018-03-21T01:24:29.660Z,20.37
2018-03-21T01:26:56.305Z,19.90
2018-03-21T01:29:22.961Z,20.92
2018-03-21T01:31:49.596Z,20.80
2018-03-21T01:34:16.220Z,22.85
2018-03-21T01:36:42.840Z,20.95
2018-03-21T01:39:09.487Z,21.90
2018-03-21T01:41:36.120Z,23.45
2018-03-21T01:44:02.755Z,22.80
2018-03-21T01:46:29.392Z,21.90
2018-03-21T01:48:56.021Z,22.92
2018-03-21T01:51:22.739Z,28.23
2018-03-21T01:53:49.451Z,22.50
2018-03-21T01:56:16.079Z,22.48
2018-03-21T01:58:42.720Z,24.83
2018-03-21T02:01:09.344Z,26.73
2018-03-21T02:03:35.971Z,22.50
2018-03-21T02:06:02.612Z,23.98
2018-03-21T02:08:29.244Z,21.77
2018-03-21T02:10:55.878Z,20.83
2018-03-21T02:13:22.531Z,19.55
2018-03-21T02:15:49.163Z,21.23
2018-03-21T02:18:15.788Z,19.02
2018-03-21T02:20:42.432Z,19.10
2018-03-21T02:23:09.054Z,18.85
2018-03-21T02:25:35.761Z,19.58
2018-03-21T02:28:02.504Z,19.58
2018-03-21T02:30:29.132Z,19.45
2018-03-21T02:32:55.768Z,23.73
2018-03-21T02:35:22.408Z,20.80
2018-03-21T02:37:49.040Z,20.08
2018-03-21T02:40:15.673Z,17.75
2018-03-21T02:42:42.319Z,19.17
2018-03-21T02:45:08.991Z,20.50
2018-03-21T02:47:35.720Z,19.62
2018-03-21T02:50:02.465Z,23.10
2018-03-21T02:52:29.102Z,19.90
2018-03-21T02:54:55.732Z,20.88
2018-03-21T02:57:22.476Z,20.17
2018-03-21T02:59:49.223Z,20.20
2018-03-21T03:02:15.847Z,19.58
2018-03-21T03:04:42.496Z,20.48
2018-03-21T03:07:09.128Z,20.05
2018-03-21T03:09:35.752Z,20.42
2018-03-21T03:12:02.404Z,20.95
2018-03-21T03:14:29.044Z,32.08
2018-03-21T03:16:55.676Z,49.22
2018-03-21T03:19:22.332Z,32.03
2018-03-21T03:21:48.961Z,25.77
2018-03-21T03:24:15.598Z,30.23
2018-03-21T03:26:42.248Z,28.50
2018-03-21T03:29:08.876Z,30.60
2018-03-21T03:31:35.521Z,46.08
2018-03-21T03:34:02.160Z,51.00
2018-03-21T03:36:28.789Z,67.18
2018-03-21T03:38:55.448Z,77.97
2018-03-21T03:41:22.097Z,70.07
2018-03-21T03:43:48.826Z,55.70
2018-03-21T03:46:15.452Z,50.58
2018-03-21T03:48:42.100Z,40.67
2018-03-21T03:51:08.734Z,34.78
2018-03-21T03:53:35.362Z,27.50
2018-03-21T03:56:02.115Z,25.92
2018-03-21T03:58:28.745Z,27.45
2018-03-21T04:00:55.382Z,24.90
2018-03-21T04:03:22.045Z,23.42
2018-03-21T04:05:48.675Z,26.05
2018-03-21T04:08:15.308Z,32.13
2018-03-21T04:10:41.956Z,29.67
2018-03-21T04:13:08.614Z,26.65
2018-03-21T04:15:35.346Z,23.12
2018-03-21T04:18:01.992Z,23.77
2018-03-21T04:20:28.620Z,24.37
2018-03-21T04:22:55.257Z,24.08
2018-03-21T04:25:22.000Z,24.25
2018-03-21T04:27:48.741Z,23.48
2018-03-21T04:30:15.375Z,25.58
2018-03-21T04:32:42.041Z,24.55
2018-03-21T04:35:08.677Z,25.40
2018-03-21T04:37:35.308Z,25.62
2018-03-21T04:40:01.958Z,23.70
2018-03-21T04:42:28.584Z,26.25
2018-03-21T04:44:55.221Z,25.25
2018-03-21T04:47:21.876Z,23.70
2018-03-21T04:49:48.500Z,26.02
2018-03-21T04:52:15.125Z,25.02
2018-03-21T04:54:41.777Z,23.08
2018-03-21T04:57:08.404Z,26.40
2018-03-21T04:59:35.035Z,26.25
2018-03-21T05:02:01.695Z,25.48
2018-03-21T05:04:28.337Z,24.10
2018-03-21T05:06:54.960Z,25.45
2018-03-21T05:09:21.708Z,23.95
2018-03-21T05:11:48.446Z,24.10
2018-03-21T05:14:15.085Z,25.00
2018-03-21T05:16:41.728Z,24.05
2018-03-21T05:19:08.492Z,26.27
2018-03-21T05:21:35.233Z,24.05
2018-03-21T05:24:01.958Z,26.37
2018-03-21T05:26:28.589Z,26.12
2018-03-21T05:28:55.221Z,25.40
2018-03-21T05:31:21.864Z,27.30
2018-03-21T05:33:48.484Z,27.48
2018-03-21T05:36:15.121Z,27.45
2018-03-21T05:38:41.763Z,27.95
2018-03-21T05:41:08.452Z,28.62
2018-03-21T05:43:35.164Z,27.45
2018-03-21T05:46:01.813Z,26.25
2018-03-21T05:48:28.544Z,25.88
2018-03-21T05:50:55.171Z,25.25
2018-03-21T05:53:21.925Z,24.85
2018-03-21T05:55:48.659Z,26.73
2018-03-21T05:58:15.311Z,29.12
2018-03-21T06:00:41.969Z,37.58
2018-03-21T06:03:08.713Z,35.10
2018-03-21T06:05:35.433Z,39.88
2018-03-21T06:08:02.194Z,38.03
2018-03-21T06:10:28.825Z,35.38
2018-03-21T06:12:55.463Z,37.17
2018-03-21T06:15:22.215Z,28.17
2018-03-21T06:17:48.955Z,29.87
2018-03-21T06:20:15.676Z,33.35
2018-03-21T06:22:42.347Z,28.17
2018-03-21T06:25:09.049Z,30.33
2018-03-21T06:27:35.684Z,43.80
2018-03-21T06:30:02.324Z,34.10
2018-03-21T06:32:29.000Z,32.72
2018-03-21T06:34:55.595Z,33.08
2018-03-21T06:37:22.259Z,34.25
2018-03-21T06:39:48.892Z,27.75
2018-03-21T06:42:15.525Z,30.35
2018-03-21T06:44:42.210Z,23.50
2018-03-21T06:47:08.899Z,22.40
2018-03-21T06:49:35.528Z,23.85
2018-03-21T06:52:02.189Z,23.98
2018-03-21T06:54:28.811Z,25.17
2018-03-21T06:56:55.448Z,28.67
2018-03-21T06:59:22.092Z,28.50
2018-03-21T07:01:48.735Z,24.05
2018-03-21T07:04:15.364Z,23.33
2018-03-21T07:06:42.008Z,24.17
2018-03-21T07:09:08.641Z,22.13
2018-03-21T07:11:35.297Z,21.92
2018-03-21T07:14:07.777Z,23.23
2018-03-21T07:16:53.096Z,21.65
2018-03-21T07:19:19.742Z,23.95
2018-03-21T07:21:46.444Z,20.50
2018-03-21T07:24:13.077Z,21.25
2018-03-21T07:26:39.836Z,19.80
2018-03-21T07:29:06.474Z,21.10
2018-03-21T07:31:33.114Z,18.60
2018-03-21T07:33:59.792Z,22.08
2018-03-21T07:36:26.433Z,20.80
2018-03-21T07:38:53.098Z,19.87
2018-03-21T07:41:19.752Z,24.87
2018-03-21T07:43:46.390Z,21.80
2018-03-21T07:46:13.129Z,22.62
2018-03-21T07:48:39.781Z,23.62
2018-03-21T07:51:06.500Z,22.90
2018-03-21T07:53:33.124Z,20.12
2018-03-21T07:55:59.772Z,18.87
2018-03-21T07:58:26.452Z,19.98
2018-03-21T08:00:53.081Z,19.73
2018-03-21T08:03:19.728Z,18.23
2018-03-21T08:05:46.368Z,16.08
2018-03-21T08:08:13.018Z,16.08
2018-03-21T08:10:39.672Z,16.27
2018-03-21T08:13:06.305Z,17.33
2018-03-21T08:15:32.941Z,17.27
2018-03-21T08:17:59.594Z,16.45
2018-03-21T08:20:26.232Z,15.52
2018-03-21T08:22:52.920Z,16.35
2018-03-21T08:25:19.579Z,15.88
2018-03-21T08:27:46.302Z,14.77
2018-03-21T08:30:12.940Z,14.87
2018-03-21T08:32:39.584Z,14.65
2018-03-21T08:35:06.324Z,13.20
2018-03-21T08:37:32.957Z,14.38
2018-03-21T08:39:59.629Z,12.93
2018-03-21T08:42:26.265Z,12.13
2018-03-21T08:44:52.976Z,13.65
2018-03-21T08:47:19.723Z,11.63
2018-03-21T08:49:46.456Z,14.00
2018-03-21T08:52:13.328Z,12.18
2018-03-21T08:54:39.972Z,11.80
2018-03-21T08:57:06.611Z,13.05
2018-03-21T08:59:33.352Z,13.48
2018-03-21T09:02:00.068Z,12.10
2018-03-21T09:04:26.812Z,11.60
2018-03-21T09:06:53.444Z,11.93
2018-03-21T09:09:20.083Z,20.75
2018-03-21T09:11:46.722Z,12.95
2018-03-21T09:14:13.357Z,13.30
2018-03-21T09:16:40.018Z,12.95
2018-03-21T09:19:06.745Z,13.00
2018-03-21T09:21:33.512Z,18.52
2018-03-21T09:24:00.151Z,12.98
2018-03-21T09:26:26.893Z,12.70
2018-03-21T09:28:53.530Z,12.27
2018-03-21T09:31:20.168Z,11.32
2018-03-21T09:33:46.800Z,12.52
2018-03-21T09:36:13.428Z,9.63
2018-03-21T09:38:40.083Z,10.82
2018-03-21T09:41:06.722Z,11.60
2018-03-21T09:43:33.355Z,12.25
2018-03-21T09:46:00.989Z,11.38
2018-03-21T09:48:27.616Z,12.68
2018-03-21T09:50:54.275Z,11.43
2018-03-21T09:53:21.021Z,10.45
2018-03-21T09:55:47.700Z,10.63
2018-03-21T09:58:14.296Z,10.70
2018-03-21T10:00:41.074Z,10.23
2018-03-21T10:03:07.785Z,9.80
2018-03-21T10:05:34.448Z,10.80
2018-03-21T10:08:01.169Z,11.80
2018-03-21T10:10:27.809Z,13.65
2018-03-21T10:12:54.433Z,11.93
2018-03-21T10:15:21.069Z,11.32
2018-03-21T10:17:47.721Z,9.82
2018-03-21T10:20:14.348Z,11.77
2018-03-21T10:22:40.993Z,10.32
2018-03-21T10:25:07.740Z,10.90
2018-03-21T10:27:34.373Z,10.02
2018-03-21T10:30:01.004Z,9.65
2018-03-21T10:32:27.629Z,10.65
2018-03-21T10:34:54.252Z,10.30
2018-03-21T10:37:20.883Z,9.48
2018-03-21T10:39:47.496Z,9.38
2018-03-21T10:42:14.135Z,9.55
2018-03-21T10:44:40.769Z,8.77
2018-03-21T10:47:07.385Z,9.82
2018-03-21T10:49:34.003Z,8.90
2018-03-21T10:52:00.671Z,18.77
2018-03-21T10:54:27.300Z,9.88
2018-03-21T10:56:53.961Z,8.95
2018-03-21T10:59:20.596Z,9.48
2018-03-21T11:01:47.212Z,8.77
2018-03-21T11:04:13.827Z,8.65
2018-03-21T11:06:40.455Z,9.30
2018-03-21T11:09:07.141Z,7.97
2018-03-21T11:11:33.756Z,8.98
2018-03-21T11:14:00.387Z,9.75
2018-03-21T11:16:27.059Z,10.13
2018-03-21T11:18:53.685Z,8.57
2018-03-21T11:21:20.316Z,7.12
2018-03-21T11:23:46.933Z,8.90
2018-03-21T11:26:13.548Z,8.10
2018-03-21T11:28:40.253Z,9.20
2018-03-21T11:31:06.872Z,7.85
2018-03-21T11:33:33.528Z,8.55
2018-03-21T11:36:00.263Z,7.28
2018-03-21T11:38:26.907Z,8.48
2018-03-21T11:40:53.524Z,9.48
2018-03-21T11:43:20.164Z,7.53
2018-03-21T11:45:46.843Z,7.22
2018-03-21T11:48:13.565Z,6.18
2018-03-21T11:50:40.304Z,5.72
2018-03-21T11:53:06.927Z,7.87
2018-03-21T11:55:33.553Z,5.40
2018-03-21T11:58:00.188Z,4.50
2018-03-21T12:00:26.820Z,5.97
2018-03-21T12:02:53.583Z,14.23
2018-03-21T12:05:20.308Z,12.37
2018-03-21T12:07:47.637Z,11.88
2018-03-21T12:10:14.578Z,25.77
2018-03-21T12:12:42.290Z,67.00
2018-03-21T12:15:09.290Z,8.02
2018-03-21T12:17:37.175Z,7.53
2018-03-21T12:20:03.881Z,13.15
2018-03-21T12:22:30.516Z,27.37
2018-03-21T12:24:57.140Z,5.22
2018-03-21T12:27:23.800Z,6.35
2018-03-21T12:29:50.656Z,8.50
2018-03-21T12:32:17.369Z,8.45
2018-03-21T12:34:44.017Z,5.70
2018-03-21T12:37:10.641Z,5.82
2018-03-21T12:39:37.288Z,6.62
2018-03-21T12:42:03.925Z,8.65
2018-03-21T12:44:30.585Z,5.37
2018-03-21T12:46:57.222Z,16.40
2018-03-21T12:49:23.948Z,4.72
2018-03-21T12:51:50.590Z,10.52
2018-03-21T12:54:17.222Z,13.10
2018-03-21T12:56:43.873Z,18.08
2018-03-21T12:59:10.506Z,4.60
2018-03-21T13:01:37.195Z,3.80
2018-03-21T13:04:03.893Z,3.55
2018-03-21T13:06:30.633Z,16.85
2018-03-21T13:08:57.278Z,3.30
2018-03-21T13:11:23.900Z,6.07
2018-03-21T13:13:50.524Z,24.85
2018-03-21T13:16:17.200Z,30.83
2018-03-21T13:18:43.919Z,16.87
2018-03-21T13:21:10.641Z,28.52
2018-03-21T13:23:37.309Z,13.15
2018-03-21T13:26:04.137Z,36.08
2018-03-21T13:28:30.717Z,4.80
2018-03-21T13:30:57.351Z,4.28
2018-03-21T13:33:24.065Z,7.43
2018-03-21T13:35:50.680Z,5.60
2018-03-21T13:38:17.371Z,9.60
2018-03-21T13:40:44.097Z,56.15
2018-03-21T13:43:10.713Z,9.70
2018-03-21T13:45:37.341Z,5.30
2018-03-21T13:48:03.985Z,7.30
2018-03-21T13:50:30.599Z,4.40
2018-03-21T13:52:57.227Z,3.53
2018-03-21T13:55:25.115Z,5.20
2018-03-21T13:57:51.781Z,18.33
2018-03-21T14:00:18.415Z,15.35
2018-03-21T14:02:45.181Z,12.25
2018-03-21T14:05:11.816Z,18.30
2018-03-21T14:07:38.561Z,26.15
2018-03-21T14:10:05.208Z,35.95
2018-03-21T14:12:31.847Z,16.30
2018-03-21T14:14:58.472Z,2.58
2018-03-21T14:17:26.958Z,10.38
2018-03-21T14:19:53.613Z,4.05
2018-03-21T14:22:20.257Z,3.17
2018-03-21T14:24:46.914Z,15.30
2018-03-21T14:27:13.608Z,19.50
2018-03-21T14:29:40.225Z,2.67
2018-03-21T14:32:06.886Z,4.62
2018-03-21T14:34:33.520Z,3.08
2018-03-21T14:37:00.136Z,5.18
2018-03-21T14:39:26.786Z,17.33
2018-03-21T14:41:53.408Z,2.80
2018-03-21T14:44:20.072Z,22.75
2018-03-21T14:46:46.716Z,29.37
2018-03-21T14:49:13.351Z,10.48
2018-03-21T14:51:39.982Z,19.60
2018-03-21T14:54:06.637Z,108.47
2018-03-21T14:56:33.265Z,26.27
2018-03-21T14:58:59.940Z,69.78
2018-03-21T15:01:26.588Z,18.73
2018-03-21T15:03:53.216Z,41.55
2018-03-21T15:06:19.861Z,11.75
2018-03-21T15:08:46.518Z,11.57
2018-03-21T15:11:13.140Z,7.37
2018-03-21T15:13:39.775Z,21.73
2018-03-21T15:16:06.416Z,11.70
2018-03-21T15:18:33.124Z,5.87
2018-03-21T15:20:59.756Z,12.55
2018-03-21T15:23:26.500Z,2.47
2018-03-21T15:25:53.123Z,4.45
2018-03-21T15:28:19.780Z,2.80
2018-03-21T15:30:46.562Z,6.22
2018-03-21T15:33:13.500Z,12.20
2018-03-21T15:35:40.651Z,5.47
2018-03-21T15:38:07.355Z,7.18
2018-03-21T15:40:34.153Z,6.60
2018-03-21T15:43:00.804Z,4.12
2018-03-21T15:45:27.744Z,5.40
2018-03-21T15:47:54.441Z,6.40
2018-03-21T15:50:21.213Z,6.65
2018-03-21T15:52:47.945Z,4.70
2018-03-21T15:55:14.569Z,7.22
2018-03-21T15:57:41.210Z,4.70
2018-03-21T16:00:07.861Z,2.90
2018-03-21T16:02:34.580Z,6.47
2018-03-21T16:05:01.213Z,3.80
2018-03-21T16:07:27.861Z,3.12
2018-03-21T16:09:54.592Z,3.12
2018-03-21T16:12:21.245Z,4.93
2018-03-21T16:14:47.875Z,3.75
2018-03-21T16:17:14.522Z,5.70
2018-03-21T16:19:41.153Z,3.25
2018-03-21T16:22:07.805Z,3.10
2018-03-21T16:24:34.559Z,5.40
2018-03-21T16:27:01.268Z,2.80
2018-03-21T16:29:27.909Z,3.85
2018-03-21T16:31:54.548Z,3.37
2018-03-21T16:34:21.172Z,3.97
2018-03-21T16:36:47.843Z,7.20
2018-03-21T16:39:14.500Z,3.17
2018-03-21T16:41:41.116Z,4.32
2018-03-21T16:44:07.744Z,2.60
2018-03-21T16:46:34.369Z,3.33
2018-03-21T16:49:01.025Z,3.10
2018-03-21T16:51:27.669Z,7.53
2018-03-21T16:53:54.409Z,3.70
2018-03-21T16:56:21.049Z,4.20
2018-03-21T16:58:47.691Z,3.92
2018-03-21T17:01:14.421Z,4.18
2018-03-21T17:03:41.063Z,9.30
2018-03-21T17:06:07.706Z,4.62
2018-03-21T17:08:34.324Z,4.75
2018-03-21T17:11:00.953Z,4.43
2018-03-21T17:13:27.601Z,6.15
2018-03-21T17:15:54.265Z,5.00
2018-03-21T17:18:20.892Z,12.43
2018-03-21T17:20:47.636Z,5.95
2018-03-21T17:23:14.277Z,6.53
2018-03-21T17:25:40.921Z,9.90
2018-03-21T17:28:07.563Z,8.65
2018-03-21T17:30:34.308Z,7.68
2018-03-21T17:33:01.049Z,7.30
2018-03-21T17:35:27.694Z,7.68
2018-03-21T17:37:54.329Z,7.57
2018-03-21T17:40:20.958Z,8.30
2018-03-21T17:42:47.657Z,10.35
2018-03-21T17:45:14.281Z,12.77
2018-03-21T17:47:40.976Z,11.27
2018-03-21T17:50:07.717Z,10.40
2018-03-21T17:52:34.361Z,12.63
2018-03-21T17:55:01.022Z,10.05
2018-03-21T17:57:27.736Z,9.85
2018-03-21T17:59:54.365Z,8.43
2018-03-21T18:02:20.984Z,8.98
2018-03-21T18:04:47.630Z,13.68
2018-03-21T18:07:14.298Z,9.63
2018-03-21T18:09:40.916Z,9.13
2018-03-21T18:12:07.562Z,8.68
2018-03-21T18:14:34.186Z,9.15
2018-03-21T18:17:00.808Z,8.68
2018-03-21T18:19:27.451Z,9.48
2018-03-21T18:21:54.133Z,9.40
2018-03-21T18:24:20.753Z,9.77
2018-03-21T18:26:47.404Z,9.98
2018-03-21T18:29:14.046Z,11.25
2018-03-21T18:31:40.692Z,10.30
2018-03-21T18:34:07.419Z,11.70
2018-03-21T18:36:34.040Z,12.57
2018-03-21T18:39:00.709Z,11.32
2018-03-21T18:41:27.368Z,11.38
2018-03-21T18:43:53.997Z,11.30
2018-03-21T18:46:20.626Z,12.05
2018-03-21T18:48:47.281Z,20.70
2018-03-21T18:51:14.000Z,26.02
2018-03-21T18:53:40.769Z,26.95
2018-03-21T18:56:07.410Z,46.63
2018-03-21T18:58:34.046Z,48.40
2018-03-21T19:01:00.677Z,42.08
2018-03-21T19:03:27.422Z,38.45
2018-03-21T19:05:54.136Z,46.78
2018-03-21T19:08:20.769Z,30.65
2018-03-21T19:10:47.421Z,21.52
2018-03-21T19:13:20.145Z,16.12
2018-03-21T19:15:40.905Z,22.67
2018-03-21T19:18:07.649Z,28.98
2018-03-21T19:20:34.281Z,25.92
2018-03-21T19:23:00.908Z,43.60
2018-03-21T19:25:27.553Z,48.70
2018-03-21T19:27:54.201Z,35.25
2018-03-21T19:30:20.824Z,39.20
2018-03-21T19:32:47.472Z,44.50
2018-03-21T19:35:14.124Z,47.65
2018-03-21T19:37:40.888Z,35.92
2018-03-21T19:40:07.608Z,24.90
2018-03-21T19:42:34.345Z,28.00
2018-03-21T19:45:01.042Z,26.05
2018-03-21T19:47:27.701Z,32.65
2018-03-21T19:49:54.359Z,27.60
2018-03-21T19:52:20.994Z,22.23
2018-03-21T19:54:47.653Z,20.80
2018-03-21T19:57:14.384Z,13.20
2018-03-21T19:59:41.007Z,12.80
2018-03-21T20:02:07.761Z,11.98
2018-03-21T20:04:34.391Z,22.33
2018-03-21T20:07:01.021Z,49.42
2018-03-21T20:09:27.657Z,56.42
2018-03-21T20:11:54.284Z,59.50
2018-03-21T20:14:20.914Z,46.15
2018-03-21T20:16:47.726Z,148.25
2018-03-21T20:19:14.350Z,45.80
2018-03-21T20:21:40.981Z,17.17
2018-03-21T20:24:07.642Z,13.02
2018-03-21T20:26:34.368Z,12.93
2018-03-21T20:29:01.000Z,22.73
2018-03-21T20:31:27.644Z,23.95
2018-03-21T20:33:54.373Z,30.95
2018-03-21T20:36:21.005Z,19.40
2018-03-21T20:38:47.657Z,17.25
2018-03-21T20:41:14.289Z,36.60
2018-03-21T20:43:40.912Z,25.48
2018-03-21T20:46:07.552Z,20.85
2018-03-21T20:48:34.192Z,16.60
2018-03-21T20:51:00.898Z,20.50
2018-03-21T20:53:27.521Z,25.67
2018-03-21T20:55:54.156Z,45.05
2018-03-21T20:58:20.867Z,37.63
2018-03-21T21:00:47.509Z,18.25
2018-03-21T21:03:14.141Z,18.90
2018-03-21T21:05:40.793Z,20.33
2018-03-21T21:08:07.529Z,19.20
2018-03-21T21:10:34.169Z,18.45
2018-03-21T21:13:00.802Z,17.17
2018-03-21T21:15:27.456Z,17.12
2018-03-21T21:17:54.081Z,16.85
2018-03-21T21:20:20.724Z,17.25
2018-03-21T21:22:47.460Z,17.02
2018-03-21T21:25:14.092Z,16.77
2018-03-21T21:27:40.740Z,16.10
2018-03-21T21:30:07.489Z,15.60
2018-03-21T21:32:34.116Z,15.45
2018-03-21T21:35:00.766Z,17.60
2018-03-21T21:37:27.421Z,18.85
2018-03-21T21:39:54.048Z,18.30
2018-03-21T21:42:20.682Z,16.45
2018-03-21T21:44:47.321Z,16.80
2018-03-21T21:47:13.949Z,18.30
2018-03-21T21:49:40.600Z,17.50
2018-03-21T21:52:07.243Z,16.83
2018-03-21T21:54:33.976Z,17.70
2018-03-21T21:57:00.603Z,16.60
2018-03-21T21:59:27.244Z,16.65
2018-03-21T22:01:53.868Z,17.00
2018-03-21T22:04:20.492Z,20.02
2018-03-21T22:06:47.132Z,18.15
2018-03-21T22:09:13.814Z,17.60
2018-03-21T22:11:40.453Z,17.73
2018-03-21T22:14:07.098Z,17.17
2018-03-21T22:16:33.858Z,19.87
2018-03-21T22:19:00.485Z,17.05
2018-03-21T22:21:27.136Z,17.58
2018-03-21T22:23:53.763Z,21.50
2018-03-21T22:26:20.393Z,20.58
2018-03-21T22:28:47.031Z,18.65
2018-03-21T22:31:13.655Z,18.58
2018-03-21T22:33:40.335Z,18.92
2018-03-21T22:36:06.988Z,19.33
2018-03-21T22:38:33.691Z,20.62
2018-03-21T22:41:00.320Z,20.23
2018-03-21T22:43:26.960Z,20.85
2018-03-21T22:45:53.598Z,18.98
2018-03-21T22:48:20.219Z,18.90
2018-03-21T22:50:46.855Z,16.80
2018-03-21T22:53:13.520Z,17.85
2018-03-21T22:55:40.143Z,18.17
2018-03-21T22:58:06.802Z,18.40
2018-03-21T23:00:33.429Z,18.77
2018-03-21T23:03:00.070Z,17.17
2018-03-21T23:05:26.718Z,17.83
2018-03-21T23:07:53.349Z,19.45
2018-03-21T23:10:19.981Z,20.92
2018-03-21T23:12:46.661Z,20.73
2018-03-21T23:15:13.298Z,18.60
2018-03-21T23:17:40.008Z,21.42
2018-03-21T23:20:06.654Z,19.37
2018-03-21T23:22:33.391Z,20.77
2018-03-21T23:25:00.016Z,20.17
2018-03-21T23:27:26.675Z,18.15
2018-03-21T23:29:53.299Z,19.62
2018-03-21T23:32:19.961Z,19.95
2018-03-21T23:34:46.697Z,18.42
2018-03-21T23:37:13.435Z,21.17
2018-03-21T23:39:40.064Z,19.83
2018-03-21T23:42:06.717Z,19.50
2018-03-21T23:44:33.350Z,17.55
2018-03-21T23:46:59.981Z,17.70
2018-03-21T23:49:26.628Z,18.60
2018-03-21T23:51:53.276Z,16.62
2018-03-21T23:54:19.917Z,18.92
2018-03-21T23:56:46.572Z,17.98
2018-03-21T23:59:13.314Z,20.95
